Time;durP1;ratioP1;P1;durP2;ratioP2;P2;SDS_P1;SDS_P2;PMS_P1;PMS_P2;Temp;Humidity;BMP_temperature;BMP_pressure;BME280_temperature;BME280_humidity;BME280_pressure;Samples;Min_cycle;Max_cycle;Signal;HPM_P1;HPM_P2
2023/10/18 00:00:19;;;;;;;8.52;6.80;;;9.50;99.90;;;;;;5036879;28;20103;-74
2023/10/18 00:02:49;;;;;;;11.68;7.30;;;9.50;99.90;;;;;;5037596;28;20500;-74
2023/10/18 00:05:17;;;;;;;11.57;7.25;;;9.50;99.90;;;;;;5035615;28;20021;-74
2023/10/18 00:07:43;;;;;;;9.18;6.70;;;9.50;99.90;;;;;;5039991;28;20025;-73
2023/10/18 00:10:11;;;;;;;8.50;7.15;;;9.50;99.90;;;;;;5023210;28;20032;-74
2023/10/18 00:12:39;;;;;;;12.15;6.78;;;9.40;99.90;;;;;;5041468;28;20504;-74
2023/10/18 00:15:06;;;;;;;8.90;7.30;;;9.40;99.90;;;;;;5035384;28;20090;-74
2023/10/18 00:17:33;;;;;;;9.65;7.03;;;9.40;99.90;;;;;;5033861;28;20099;-73
2023/10/18 00:20:00;;;;;;;10.07;6.85;;;9.50;99.90;;;;;;5042255;28;20025;-74
2023/10/18 00:22:26;;;;;;;7.65;6.82;;;9.50;99.90;;;;;;5037950;28;20068;-73
2023/10/18 00:24:51;;;;;;;11.05;8.07;;;9.40;99.90;;;;;;5036721;28;20021;-72
2023/10/18 00:27:17;;;;;;;11.13;7.53;;;9.40;99.90;;;;;;5041665;28;20068;-73
2023/10/18 00:29:43;;;;;;;10.20;7.50;;;9.50;99.90;;;;;;5038425;28;20490;-72
2023/10/18 00:32:10;;;;;;;9.85;7.32;;;9.40;99.90;;;;;;5024709;28;20420;-72
2023/10/18 00:34:36;;;;;;;9.15;6.75;;;9.40;99.90;;;;;;5042995;28;20075;-72
2023/10/18 00:37:03;;;;;;;10.63;8.40;;;9.40;99.90;;;;;;5039431;28;20057;-72
2023/10/18 00:39:32;;;;;;;9.20;7.22;;;9.40;99.90;;;;;;5037605;28;20025;-72
2023/10/18 00:44:42;;;;;;;8.60;7.13;;;9.40;99.90;;;;;;5037338;28;20528;-72
2023/10/18 00:47:10;;;;;;;10.75;6.82;;;9.40;99.90;;;;;;5018685;28;20021;-72
2023/10/18 00:49:37;;;;;;;9.35;6.90;;;9.40;99.90;;;;;;5038874;28;20055;-72
2023/10/18 00:52:03;;;;;;;8.15;6.70;;;9.30;99.90;;;;;;5040306;28;20040;-71
2023/10/18 00:54:29;;;;;;;12.25;7.20;;;9.20;99.90;;;;;;5022674;28;20108;-71
2023/10/18 00:56:55;;;;;;;10.82;6.97;;;9.20;99.90;;;;;;5037639;28;20024;-72
2023/10/18 00:59:22;;;;;;;10.73;7.00;;;9.20;99.90;;;;;;5040313;28;20026;-71
2023/10/18 01:01:57;;;;;;;10.95;6.72;;;9.30;99.90;;;;;;5036886;28;20009;-72
2023/10/18 01:04:24;;;;;;;12.25;6.97;;;9.30;99.90;;;;;;5037241;28;20124;-72
2023/10/18 01:06:50;;;;;;;9.88;7.43;;;9.30;99.90;;;;;;5038342;28;20125;-71
2023/10/18 01:09:20;;;;;;;10.48;7.00;;;9.30;99.90;;;;;;5039020;28;20028;-72
2023/10/18 01:11:46;;;;;;;11.90;7.43;;;9.30;99.90;;;;;;5038481;28;20784;-71
2023/10/18 01:14:18;;;;;;;13.02;6.95;;;9.30;99.90;;;;;;5039351;28;20090;-71
2023/10/18 01:16:44;;;;;;;10.52;6.82;;;9.30;99.90;;;;;;5036051;28;20083;-72
2023/10/18 01:19:14;;;;;;;11.02;7.68;;;9.30;99.90;;;;;;5042301;28;20031;-72
2023/10/18 01:21:45;;;;;;;9.38;7.00;;;9.30;99.90;;;;;;5037674;28;20367;-72
2023/10/18 01:24:14;;;;;;;8.52;7.00;;;9.40;99.90;;;;;;5040949;28;20107;-72
2023/10/18 01:26:40;;;;;;;10.10;6.93;;;9.30;99.90;;;;;;5037912;28;20025;-72
2023/10/18 01:29:10;;;;;;;11.00;6.72;;;9.30;99.90;;;;;;5041225;28;20037;-73
2023/10/18 01:31:37;;;;;;;10.50;7.50;;;9.30;99.90;;;;;;5021272;28;20053;-71
2023/10/18 01:34:06;;;;;;;10.18;6.95;;;9.30;99.90;;;;;;5021757;28;20024;-71
2023/10/18 01:36:38;;;;;;;9.27;6.63;;;9.30;99.90;;;;;;5023524;28;20436;-72
2023/10/18 01:39:20;;;;;;;9.63;6.82;;;9.30;99.90;;;;;;5041635;28;20140;-71
2023/10/18 01:41:51;;;;;;;8.27;6.47;;;9.30;99.90;;;;;;5020134;28;20021;-72
2023/10/18 01:44:35;;;;;;;10.93;7.35;;;9.30;99.90;;;;;;5021051;28;20024;-72
2023/10/18 01:47:08;;;;;;;8.15;6.70;;;9.30;99.90;;;;;;5038675;28;20091;-71
2023/10/18 01:49:54;;;;;;;8.88;7.00;;;9.30;99.90;;;;;;5039216;28;20091;-72
2023/10/18 01:52:20;;;;;;;10.77;7.00;;;9.40;99.90;;;;;;5037543;28;20080;-71
2023/10/18 01:54:48;;;;;;;10.88;7.65;;;9.40;99.90;;;;;;5039048;28;20029;-71
2023/10/18 01:57:15;;;;;;;8.05;6.18;;;9.40;99.90;;;;;;5038507;28;20025;-72
2023/10/18 01:59:40;;;;;;;9.57;6.78;;;9.30;99.90;;;;;;5018269;28;20086;-71
2023/10/18 02:02:10;;;;;;;10.57;7.00;;;9.20;99.90;;;;;;5039515;28;20021;-72
2023/10/18 02:04:37;;;;;;;9.93;6.82;;;9.30;99.90;;;;;;5039914;28;20020;-71
2023/10/18 02:07:06;;;;;;;9.15;7.05;;;9.20;99.90;;;;;;5037507;28;20455;-71
2023/10/18 02:09:36;;;;;;;10.27;6.85;;;9.30;99.90;;;;;;5038980;28;20547;-71
2023/10/18 02:12:08;;;;;;;8.23;6.40;;;9.30;99.90;;;;;;5035907;28;20029;-71
2023/10/18 02:14:34;;;;;;;12.57;6.47;;;9.40;99.90;;;;;;5042444;28;20521;-71
2023/10/18 02:17:01;;;;;;;8.65;6.78;;;9.40;99.90;;;;;;5023757;28;20088;-71
2023/10/18 02:19:27;;;;;;;10.88;6.25;;;9.50;99.90;;;;;;5045382;28;20033;-71
2023/10/18 02:22:16;;;;;;;9.93;6.63;;;9.40;99.90;;;;;;5042645;28;20474;-72
2023/10/18 02:24:45;;;;;;;10.00;6.40;;;9.40;99.90;;;;;;5041494;28;20040;-72
2023/10/18 02:27:15;;;;;;;10.00;6.25;;;9.30;99.90;;;;;;5040855;28;20048;-71
2023/10/18 02:29:42;;;;;;;9.57;7.10;;;9.30;99.90;;;;;;5041231;28;20412;-71
2023/10/18 02:32:23;;;;;;;8.02;6.15;;;9.30;99.90;;;;;;5039998;28;20024;-71
2023/10/18 02:34:52;;;;;;;13.82;6.63;;;9.30;99.90;;;;;;5041065;28;20067;-71
2023/10/18 02:37:19;;;;;;;11.30;6.18;;;9.20;99.90;;;;;;5025033;28;20060;-71
2023/10/18 02:39:46;;;;;;;11.73;7.13;;;9.30;99.90;;;;;;5039395;28;20053;-72
2023/10/18 02:42:13;;;;;;;9.50;6.63;;;9.30;99.90;;;;;;5042762;28;20033;-72
2023/10/18 02:44:44;;;;;;;8.70;6.28;;;9.30;99.90;;;;;;5037025;28;20017;-71
2023/10/18 02:47:16;;;;;;;8.82;6.60;;;9.30;99.90;;;;;;5046633;28;20386;-72
2023/10/18 02:49:45;;;;;;;6.93;5.40;;;9.20;99.90;;;;;;5051426;28;20017;-74
2023/10/18 02:52:15;;;;;;;7.45;5.80;;;9.20;99.90;;;;;;5054632;28;20088;-74
2023/10/18 02:54:41;;;;;;;9.18;6.30;;;9.30;99.90;;;;;;5053392;28;20465;-71
2023/10/18 02:57:07;;;;;;;9.52;6.68;;;9.30;99.90;;;;;;5050950;28;20041;-70
2023/10/18 02:59:35;;;;;;;10.82;6.63;;;9.40;99.90;;;;;;5052407;28;20036;-73
2023/10/18 03:02:01;;;;;;;10.95;6.07;;;9.30;99.90;;;;;;5052851;28;20063;-71
2023/10/18 03:04:29;;;;;;;11.40;6.15;;;9.20;99.90;;;;;;5051078;28;20013;-71
2023/10/18 03:06:55;;;;;;;7.55;5.97;;;9.20;99.90;;;;;;5052178;28;20024;-71
2023/10/18 03:12:02;;;;;;;9.85;5.97;;;9.20;99.90;;;;;;5053349;28;20102;-71
2023/10/18 03:14:41;;;;;;;9.25;5.68;;;9.20;99.90;;;;;;5053933;28;20028;-71
2023/10/18 03:17:23;;;;;;;10.93;6.47;;;9.20;99.90;;;;;;5054547;28;20037;-71
2023/10/18 03:19:56;;;;;;;7.63;6.03;;;9.20;99.90;;;;;;5053314;28;20504;-73
2023/10/18 03:22:22;;;;;;;;;;;9.10;99.90;;;;;;5054182;28;20024;-71
2023/10/18 03:24:53;;;;;;;7.47;5.85;;;9.10;99.90;;;;;;5035238;28;19905;-71
2023/10/18 03:27:18;;;;;;;9.15;6.53;;;9.20;99.90;;;;;;5054127;28;20044;-71
2023/10/18 03:29:45;;;;;;;7.63;6.20;;;9.10;99.90;;;;;;5054367;28;20025;-72
2023/10/18 03:32:19;;;;;;;7.07;5.80;;;9.10;99.90;;;;;;5054490;28;20028;-71
2023/10/18 03:34:45;;;;;;;8.80;6.47;;;9.10;99.90;;;;;;5054563;28;20024;-71
2023/10/18 03:37:26;;;;;;;9.57;5.90;;;9.10;99.90;;;;;;5053700;28;20139;-71
2023/10/18 03:39:53;;;;;;;10.10;5.85;;;9.10;99.90;;;;;;5047157;28;20032;-71
2023/10/18 03:42:31;;;;;;;12.40;6.38;;;9.10;99.90;;;;;;5016518;28;20067;-71
2023/10/18 03:44:58;;;;;;;11.52;5.80;;;9.10;99.90;;;;;;5034043;28;20069;-71
2023/10/18 03:47:24;;;;;;;10.98;6.20;;;9.10;99.90;;;;;;5048865;28;20469;-71
2023/10/18 03:49:53;;;;;;;8.48;6.03;;;9.10;99.90;;;;;;5052461;28;20036;-71
2023/10/18 03:52:22;;;;;;;6.75;5.65;;;9.10;99.90;;;;;;5072100;28;20035;-71
2023/10/18 03:57:27;;;;;;;10.73;6.07;;;9.00;99.90;;;;;;5060620;28;20510;-71
2023/10/18 04:00:10;;;;;;;10.70;6.10;;;9.10;99.90;;;;;;5054039;28;20074;-71
2023/10/18 04:02:36;;;;;;;;;;;9.10;99.90;;;;;;5051976;28;20025;-71
2023/10/18 04:05:21;;;;;;;10.00;5.65;;;9.00;99.90;;;;;;5052397;28;19912;-71
2023/10/18 04:07:47;;;;;;;7.63;5.65;;;9.00;99.90;;;;;;5054006;28;20025;-71
2023/10/18 04:10:13;;;;;;;13.88;5.32;;;9.00;99.90;;;;;;5053576;28;20447;-71
2023/10/18 04:12:40;;;;;;;11.95;6.80;;;9.00;99.90;;;;;;5053205;28;20021;-71
2023/10/18 04:15:21;;;;;;;7.18;5.68;;;9.00;99.90;;;;;;5053787;28;20398;-71
2023/10/18 04:17:49;;;;;;;11.15;6.55;;;9.00;99.90;;;;;;5053246;28;20040;-71
2023/10/18 04:22:47;;;;;;;11.17;6.10;;;9.00;99.90;;;;;;5033607;28;20071;-73
2023/10/18 04:25:33;;;;;;;9.60;5.80;;;9.00;99.90;;;;;;5032994;28;20026;-71
2023/10/18 04:27:59;;;;;;;8.40;5.90;;;9.00;99.90;;;;;;5032999;28;20045;-71
2023/10/18 04:30:30;;;;;;;9.15;6.10;;;9.00;99.90;;;;;;5031883;28;20026;-71
2023/10/18 04:35:45;;;;;;;8.93;5.70;;;9.00;99.90;;;;;;5003631;28;20029;-71
2023/10/18 04:38:36;;;;;;;10.15;5.90;;;9.00;99.90;;;;;;5050970;28;20037;-71
2023/10/18 04:41:09;;;;;;;12.90;6.60;;;9.00;99.90;;;;;;5052708;28;20021;-71
2023/10/18 04:43:36;;;;;;;10.07;6.57;;;9.00;99.90;;;;;;5053340;28;20033;-71
2023/10/18 04:46:07;;;;;;;8.98;6.55;;;9.00;99.90;;;;;;5052515;28;20071;-71
2023/10/18 04:51:26;;;;;;;10.40;5.97;;;9.00;99.90;;;;;;5053330;28;20040;-72
2023/10/18 04:54:08;;;;;;;8.90;6.88;;;9.00;99.90;;;;;;5052886;28;20024;-71
2023/10/18 04:56:34;;;;;;;11.18;6.07;;;8.90;99.90;;;;;;5050758;28;20028;-71
2023/10/18 04:59:44;;;;;;;9.75;5.65;;;8.90;99.90;;;;;;5034004;28;20131;-72
2023/10/18 05:01:56;;;;;;;8.70;5.43;;;8.90;99.90;;;;;;5048756;28;20040;-71
2023/10/18 05:07:00;;;;;;;10.43;6.03;;;8.80;99.90;;;;;;5052178;28;20029;-71
2023/10/18 05:09:43;;;;;;;6.78;5.22;;;8.80;99.90;;;;;;5052677;28;20474;-72
2023/10/18 05:17:35;;;;;;;10.55;6.00;;;8.70;99.90;;;;;;5052694;28;20043;-72
2023/10/18 05:20:21;;;;;;;10.43;6.70;;;8.70;99.90;;;;;;5052824;28;20025;-71
2023/10/18 05:22:50;;;;;;;8.77;6.45;;;8.70;99.90;;;;;;5051561;28;20474;-71
2023/10/18 05:28:09;;;;;;;9.65;5.88;;;8.70;99.90;;;;;;5051610;28;20110;-71
2023/10/18 05:43:45;;;;;;;11.88;6.65;;;8.60;99.90;;;;;;5052481;28;20095;-71
2023/10/18 05:46:11;;;;;;;10.45;6.65;;;8.60;99.90;;;;;;5052105;28;20459;-71
2023/10/18 05:48:41;;;;;;;12.98;6.80;;;8.60;99.90;;;;;;5052336;28;20071;-71
2023/10/18 05:53:51;;;;;;;9.35;5.93;;;8.60;99.90;;;;;;5045323;28;20025;-71
2023/10/18 05:56:22;;;;;;;9.70;6.18;;;8.60;99.90;;;;;;5043562;28;20047;-71
2023/10/18 05:59:15;;;;;;;12.75;6.43;;;8.60;99.90;;;;;;5034119;28;20037;-71
2023/10/18 06:01:34;;;;;;;13.27;6.57;;;8.60;99.90;;;;;;5043863;28;20083;-71
2023/10/18 06:03:59;;;;;;;6.90;5.72;;;8.60;99.90;;;;;;5051292;28;20057;-72
2023/10/18 06:06:25;;;;;;;9.07;6.95;;;8.60;99.90;;;;;;5033690;28;20048;-71
2023/10/18 06:08:51;;;;;;;10.80;6.75;;;8.60;99.90;;;;;;5052038;28;20470;-71
2023/10/18 06:11:19;;;;;;;8.73;6.40;;;8.60;99.90;;;;;;5050941;28;20021;-71
2023/10/18 06:13:45;;;;;;;12.13;7.20;;;8.60;99.90;;;;;;5051152;28;20033;-71
2023/10/18 06:16:20;;;;;;;9.20;6.82;;;8.50;99.90;;;;;;5051803;28;20090;-71
2023/10/18 06:18:49;;;;;;;8.93;6.50;;;8.60;99.90;;;;;;5051629;28;20095;-71
2023/10/18 06:21:18;;;;;;;9.77;6.88;;;8.50;99.90;;;;;;5051615;28;20599;-71
2023/10/18 06:23:57;;;;;;;8.65;7.03;;;8.60;99.90;;;;;;5051097;28;20116;-71
2023/10/18 06:26:28;;;;;;;9.68;6.97;;;8.50;99.90;;;;;;5050664;28;20029;-71
2023/10/18 06:29:01;;;;;;;9.27;6.93;;;8.60;99.90;;;;;;5050753;28;20033;-73
2023/10/18 06:31:31;;;;;;;9.77;6.85;;;8.60;99.90;;;;;;5050292;28;20071;-72
2023/10/18 06:33:59;;;;;;;9.18;7.03;;;8.60;99.90;;;;;;5050428;28;20454;-72
2023/10/18 06:36:25;;;;;;;12.38;7.28;;;8.60;99.90;;;;;;5051156;28;20055;-72
2023/10/18 06:38:52;;;;;;;10.57;6.93;;;8.60;99.90;;;;;;5029051;28;20036;-72
2023/10/18 06:41:18;;;;;;;9.15;6.80;;;8.60;99.90;;;;;;5051680;28;20021;-71
2023/10/18 06:43:48;;;;;;;10.80;6.07;;;8.60;99.90;;;;;;5050947;28;20044;-72
2023/10/18 06:46:26;;;;;;;10.20;6.32;;;8.50;99.90;;;;;;5050839;28;20013;-72
2023/10/18 06:48:58;;;;;;;7.70;6.22;;;8.60;99.90;;;;;;5049853;28;20028;-72
2023/10/18 06:51:40;;;;;;;;;;;8.70;99.90;;;;;;5051967;28;20021;-72
2023/10/18 06:54:10;;;;;;;9.55;6.70;;;8.70;99.90;;;;;;5051437;28;19913;-71
2023/10/18 06:56:47;;;;;;;9.77;6.85;;;8.70;99.90;;;;;;5049767;28;20021;-72
2023/10/18 06:59:14;;;;;;;10.00;6.70;;;8.70;99.90;;;;;;5052269;28;20037;-71
2023/10/18 07:01:53;;;;;;;9.35;6.55;;;8.70;99.90;;;;;;5054496;28;20103;-72
2023/10/18 07:04:18;;;;;;;12.05;7.20;;;8.80;99.90;;;;;;5054677;28;20025;-72
2023/10/18 07:06:49;;;;;;;9.50;6.22;;;8.80;99.90;;;;;;5037379;28;20029;-71
2023/10/18 07:09:28;;;;;;;11.98;7.55;;;8.80;99.90;;;;;;5053056;28;20027;-71
2023/10/18 07:11:57;;;;;;;11.35;7.75;;;8.80;99.90;;;;;;5054417;28;20032;-72
2023/10/18 07:14:24;;;;;;;8.90;6.80;;;8.80;99.90;;;;;;5053925;28;20465;-71
2023/10/18 07:16:56;;;;;;;12.27;6.95;;;8.90;99.90;;;;;;5053388;28;20025;-72
2023/10/18 07:19:47;;;;;;;10.03;7.53;;;8.90;99.90;;;;;;5053156;28;20028;-71
2023/10/18 07:22:21;;;;;;;12.85;7.10;;;8.80;99.90;;;;;;5053685;28;20076;-72
2023/10/18 07:24:53;;;;;;;12.07;7.18;;;8.80;99.90;;;;;;5053542;28;20036;-72
2023/10/18 07:27:24;;;;;;;;;;;8.90;99.90;;;;;;5039024;28;20035;-72
2023/10/18 07:29:50;;;;;;;9.00;6.90;;;9.00;99.90;;;;;;5038416;28;20344;-71
2023/10/18 07:32:20;;;;;;;9.85;6.95;;;9.10;99.90;;;;;;5035390;28;20013;-72
2023/10/18 07:34:48;;;;;;;9.85;7.22;;;9.10;99.90;;;;;;5053961;28;20024;-71
2023/10/18 07:37:17;;;;;;;9.98;7.18;;;9.20;99.90;;;;;;5053603;28;20083;-71
2023/10/18 07:39:56;;;;;;;10.55;7.75;;;9.20;99.90;;;;;;5052778;28;20596;-72
2023/10/18 07:42:26;;;;;;;11.43;8.52;;;9.30;99.90;;;;;;5053532;28;20505;-71
2023/10/18 07:44:55;;;;;;;12.27;7.30;;;9.30;99.90;;;;;;5053604;28;20056;-72
2023/10/18 07:47:25;;;;;;;9.32;7.22;;;9.30;99.90;;;;;;5053003;28;20029;-72
2023/10/18 07:49:55;;;;;;;9.73;7.47;;;9.30;99.90;;;;;;5037751;28;20505;-72
2023/10/18 07:52:21;;;;;;;10.52;7.43;;;9.40;99.90;;;;;;5053435;28;20029;-73
2023/10/18 07:54:48;;;;;;;9.75;7.78;;;9.40;99.90;;;;;;5035573;28;20020;-72
2023/10/18 07:57:17;;;;;;;12.77;7.70;;;9.40;99.90;;;;;;5053560;28;20341;-71
2023/10/18 07:59:46;;;;;;;10.70;7.43;;;9.50;99.90;;;;;;5051258;28;20029;-72
2023/10/18 08:02:13;;;;;;;12.35;7.13;;;9.50;99.90;;;;;;5053447;28;20028;-73
2023/10/18 08:04:42;;;;;;;13.88;7.15;;;9.60;99.90;;;;;;5053564;28;20029;-71
2023/10/18 08:07:15;;;;;;;12.38;7.55;;;9.70;99.90;;;;;;5051865;28;20053;-72
2023/10/18 08:09:43;;;;;;;10.43;7.72;;;9.70;99.90;;;;;;5053286;28;20017;-72
2023/10/18 08:14:52;;;;;;;11.13;6.90;;;9.80;99.90;;;;;;5052147;28;20025;-72
2023/10/18 08:22:53;;;;;;;11.32;7.38;;;10.00;99.90;;;;;;5053000;28;20044;-73
2023/10/18 08:26:03;;;;;;;9.50;7.68;;;9.90;99.90;;;;;;5052549;28;20032;-73
2023/10/18 08:28:13;;;;;;;12.55;7.88;;;10.10;99.90;;;;;;5047759;28;20098;-74
2023/10/18 08:33:08;;;;;;;10.20;6.93;;;10.20;99.90;;;;;;5051624;28;20451;-73
2023/10/18 08:35:36;;;;;;;10.68;7.43;;;10.20;99.90;;;;;;5043780;28;20462;-74
2023/10/18 08:38:02;;;;;;;12.50;6.63;;;10.30;99.90;;;;;;5035177;28;20040;-73
2023/10/18 08:43:28;;;;;;;10.10;7.13;;;10.40;99.90;;;;;;5052998;28;20551;-74
2023/10/18 08:45:55;;;;;;;12.32;7.18;;;10.50;99.90;;;;;;5046242;28;20028;-74
2023/10/18 08:48:28;;;;;;;11.77;6.45;;;10.60;99.90;;;;;;5052657;28;20067;-73
2023/10/18 08:50:58;;;;;;;14.32;7.85;;;10.60;99.90;;;;;;5050922;28;20108;-74
2023/10/18 08:53:26;;;;;;;12.18;7.05;;;10.70;99.90;;;;;;5053098;28;20029;-75
2023/10/18 08:55:57;;;;;;;11.10;7.38;;;10.80;99.90;;;;;;5052523;28;20053;-80
2023/10/18 08:58:27;;;;;;;13.60;7.95;;;10.90;99.90;;;;;;5034610;28;20079;-73
2023/10/18 09:03:27;;;;;;;12.40;7.38;;;11.00;99.90;;;;;;5053081;28;20029;-73
2023/10/18 09:06:04;;;;;;;15.10;7.90;;;11.20;99.90;;;;;;5052933;28;20033;-75
2023/10/18 09:08:38;;;;;;;9.50;7.03;;;11.30;99.90;;;;;;5052409;28;20024;-73
2023/10/18 09:11:09;;;;;;;10.88;7.22;;;11.30;99.90;;;;;;5052523;28;20462;-74
2023/10/18 09:13:42;;;;;;;10.30;7.30;;;11.30;99.90;;;;;;5052953;28;20022;-74
2023/10/18 09:16:11;;;;;;;13.15;6.88;;;11.40;99.90;;;;;;5052584;28;20029;-74
2023/10/18 09:18:37;;;;;;;10.65;7.20;;;11.50;99.90;;;;;;5052759;28;20033;-74
2023/10/18 09:21:26;;;;;;;21.33;9.18;;;11.60;99.90;;;;;;5050854;28;20107;-75
2023/10/18 09:23:50;;;;;;;14.82;8.30;;;11.60;99.90;;;;;;5051506;28;20033;-74
2023/10/18 09:26:26;;;;;;;10.65;7.00;;;11.80;99.90;;;;;;5051655;28;20014;-73
2023/10/18 09:28:56;;;;;;;10.77;6.38;;;11.80;99.90;;;;;;5049515;28;20025;-75
2023/10/18 09:31:22;;;;;;;13.32;8.13;;;11.90;99.90;;;;;;5051702;28;20021;-75
2023/10/18 09:33:58;;;;;;;18.83;7.72;;;12.10;99.90;;;;;;5051463;28;20025;-73
2023/10/18 09:36:24;;;;;;;13.07;7.85;;;12.20;99.90;;;;;;5049827;28;20375;-74
2023/10/18 09:38:52;;;;;;;8.07;6.55;;;12.20;99.90;;;;;;5032791;28;20037;-73
2023/10/18 09:41:18;;;;;;;11.88;7.47;;;12.30;99.90;;;;;;5050832;28;20029;-74
2023/10/18 09:43:45;;;;;;;11.77;7.40;;;12.30;99.90;;;;;;5050950;28;20029;-74
2023/10/18 09:46:13;;;;;;;9.40;6.40;;;12.30;99.90;;;;;;5032184;28;20119;-74
2023/10/18 09:48:43;;;;;;;16.70;6.60;;;12.50;99.90;;;;;;5050695;28;20025;-73
2023/10/18 09:51:11;;;;;;;13.13;6.43;;;12.50;99.90;;;;;;5051531;28;20053;-73
2023/10/18 09:53:44;;;;;;;13.00;7.43;;;12.50;99.90;;;;;;5034370;28;20061;-74
2023/10/18 09:56:14;;;;;;;12.10;7.28;;;12.70;99.90;;;;;;5050875;28;20576;-74
2023/10/18 09:58:46;;;;;;;13.52;6.63;;;12.70;99.90;;;;;;5050781;28;20529;-74
2023/10/18 10:01:13;;;;;;;12.27;7.45;;;12.80;99.90;;;;;;5051916;28;20021;-74
2023/10/18 10:03:52;;;;;;;10.60;7.03;;;12.90;99.90;;;;;;5034335;28;20036;-74
2023/10/18 10:06:26;;;;;;;12.90;7.30;;;13.00;99.90;;;;;;5051886;28;20017;-74
2023/10/18 10:08:55;;;;;;;12.88;6.28;;;13.00;99.90;;;;;;5051365;28;20021;-74
2023/10/18 10:11:29;;;;;;;13.18;6.40;;;13.00;99.90;;;;;;5051716;28;20527;-74
2023/10/18 10:13:58;;;;;;;8.07;6.60;;;13.20;99.90;;;;;;5029110;28;20044;-73
2023/10/18 10:16:28;;;;;;;9.52;6.78;;;13.30;99.90;;;;;;5043742;28;20032;-74
2023/10/18 10:18:56;;;;;;;7.15;5.85;;;13.50;99.90;;;;;;5051941;28;20044;-74
2023/10/18 10:21:23;;;;;;;9.85;6.60;;;13.70;99.90;;;;;;5051472;28;20017;-74
2023/10/18 10:23:57;;;;;;;10.32;6.07;;;13.80;99.90;;;;;;5051206;28;20037;-73
2023/10/18 10:26:28;;;;;;;9.50;6.68;;;13.90;99.90;;;;;;5031803;28;20079;-74
2023/10/18 10:31:54;;;;;;;12.55;7.22;;;13.90;99.90;;;;;;5050719;28;20064;-74
2023/10/18 10:34:34;;;;;;;11.70;6.60;;;14.00;99.90;;;;;;5053247;28;20021;-74
2023/10/18 10:37:19;;;;;;;8.02;6.78;;;14.00;99.90;;;;;;5055799;28;20029;-75
2023/10/18 10:39:52;;;;;;;14.48;6.55;;;14.10;99.90;;;;;;5037066;28;20108;-74
2023/10/18 10:42:43;;;;;;;9.48;6.50;;;14.10;99.90;;;;;;5054157;28;20021;-75
2023/10/18 10:48:15;;;;;;;8.45;6.35;;;14.40;99.90;;;;;;5054343;28;20029;-74
2023/10/18 10:50:52;;;;;;;8.63;6.88;;;14.60;99.90;;;;;;5037083;28;20425;-74
2023/10/18 10:53:33;;;;;;;9.77;6.32;;;14.60;99.90;;;;;;5054469;28;20067;-74
2023/10/18 10:56:19;;;;;;;10.70;6.28;;;14.80;99.90;;;;;;5036375;28;20033;-75
2023/10/18 10:58:55;;;;;;;10.15;6.78;;;15.00;99.90;;;;;;5036801;28;20029;-74
2023/10/18 11:01:39;;;;;;;10.43;6.75;;;15.20;99.90;;;;;;5037185;28;20083;-74
2023/10/18 11:04:29;;;;;;;11.02;6.90;;;15.20;99.90;;;;;;5053480;28;20033;-75
2023/10/18 11:07:00;;;;;;;10.02;6.28;;;15.10;99.90;;;;;;5054737;28;20480;-75
2023/10/18 11:09:42;;;;;;;8.32;6.10;;;15.00;99.90;;;;;;5054402;28;20032;-74
2023/10/18 11:12:13;;;;;;;8.68;5.97;;;15.10;99.90;;;;;;5054928;28;20082;-74
2023/10/18 11:14:42;;;;;;;10.43;6.30;;;15.20;99.90;;;;;;5054362;28;20053;-74
2023/10/18 11:19:44;;;;;;;10.00;6.28;;;15.20;99.90;;;;;;5017925;28;20037;-74
2023/10/18 11:22:11;;;;;;;9.07;5.95;;;15.20;99.90;;;;;;5042588;28;21112;-75
2023/10/18 11:24:39;;;;;;;8.88;6.00;;;15.30;99.90;;;;;;5037429;28;20014;-75
2023/10/18 11:27:10;;;;;;;10.68;5.88;;;15.20;99.90;;;;;;5036351;28;20027;-74
2023/10/18 11:29:38;;;;;;;8.02;5.93;;;15.30;99.90;;;;;;5035733;28;20421;-74
2023/10/18 11:32:08;;;;;;;10.43;6.68;;;15.40;99.90;;;;;;5038451;28;20025;-74
2023/10/18 11:34:45;;;;;;;8.35;5.28;;;15.30;99.90;;;;;;5020564;28;20118;-75
2023/10/18 11:37:23;;;;;;;8.38;5.55;;;15.40;99.90;;;;;;5022282;28;20059;-74
2023/10/18 11:39:48;;;;;;;8.45;5.15;;;15.40;99.90;;;;;;5036710;28;20462;-74
2023/10/18 11:42:17;;;;;;;16.98;6.53;;;15.40;99.90;;;;;;5041742;28;20029;-75
2023/10/18 11:44:43;;;;;;;13.18;6.18;;;15.40;99.90;;;;;;5036969;28;20492;-74
2023/10/18 11:47:19;;;;;;;13.23;5.82;;;15.50;99.90;;;;;;5035900;28;20029;-74
2023/10/18 11:49:46;;;;;;;10.55;6.40;;;15.50;99.90;;;;;;5035867;28;20037;-74
2023/10/18 11:52:16;;;;;;;9.52;5.05;;;15.50;99.90;;;;;;5038051;28;20022;-75
2023/10/18 11:54:43;;;;;;;9.98;5.47;;;15.50;99.90;;;;;;5037999;28;20427;-74
2023/10/18 11:57:30;;;;;;;9.20;6.10;;;15.50;99.90;;;;;;5040958;28;20033;-74
2023/10/18 12:03:01;;;;;;;10.32;5.60;;;15.40;99.90;;;;;;4981742;28;20037;-72
2023/10/18 12:05:29;;;;;;;11.65;5.65;;;15.30;99.90;;;;;;5025859;28;20033;-74
2023/10/18 12:08:05;;;;;;;9.77;5.20;;;15.30;99.90;;;;;;5019662;28;20898;-74
2023/10/18 12:10:34;;;;;;;17.25;5.65;;;15.30;99.90;;;;;;5022370;28;20172;-74
2023/10/18 12:13:05;;;;;;;7.55;4.68;;;15.30;99.90;;;;;;5019678;28;20053;-74
2023/10/18 12:15:31;;;;;;;9.73;5.40;;;15.30;99.90;;;;;;5035415;28;20037;-74
2023/10/18 12:18:01;;;;;;;9.07;5.88;;;15.30;99.90;;;;;;5032503;28;20100;-74
2023/10/18 12:20:28;;;;;;;9.05;5.60;;;15.30;99.90;;;;;;5038343;28;20032;-75
2023/10/18 12:22:54;;;;;;;10.57;5.60;;;15.40;99.90;;;;;;5018628;28;20082;-74
2023/10/18 12:25:20;;;;;;;10.40;5.57;;;15.40;99.90;;;;;;5036226;28;20116;-75
2023/10/18 12:27:52;;;;;;;10.15;5.28;;;15.30;99.90;;;;;;5033464;28;20033;-74
2023/10/18 12:30:38;;;;;;;11.15;5.50;;;15.30;99.90;;;;;;5035146;28;20498;-74
2023/10/18 12:33:06;;;;;;;10.82;5.45;;;15.30;99.90;;;;;;5034457;28;20036;-74
2023/10/18 12:35:34;;;;;;;8.65;5.20;;;15.40;99.90;;;;;;5034209;28;20053;-74
2023/10/18 12:38:07;;;;;;;8.90;5.03;;;15.50;99.90;;;;;;5035765;28;20053;-75
2023/10/18 12:43:08;;;;;;;13.20;5.37;;;15.50;99.90;;;;;;5034199;28;20037;-75
2023/10/18 12:45:45;;;;;;;6.28;4.78;;;15.60;99.90;;;;;;5029062;28;20351;-75
2023/10/18 12:48:13;;;;;;;8.85;4.82;;;15.60;99.90;;;;;;5033581;28;20032;-74
2023/10/18 12:50:45;;;;;;;8.82;4.55;;;15.50;99.90;;;;;;5035476;28;20032;-74
2023/10/18 12:53:47;;;;;;;8.57;4.82;;;15.60;99.90;;;;;;5032386;28;20871;-74
2023/10/18 12:58:47;;;;;;;11.82;5.03;;;15.70;99.90;;;;;;5033996;28;20049;-74
2023/10/18 13:01:14;;;;;;;10.95;5.20;;;15.70;99.90;;;;;;5017177;28;20069;-74
2023/10/18 13:03:56;;;;;;;9.95;5.43;;;15.70;99.90;;;;;;5037297;28;20060;-75
2023/10/18 13:06:30;;;;;;;10.65;4.63;;;15.70;99.90;;;;;;5034850;28;20027;-74
2023/10/18 13:14:23;;;;;;;10.27;4.45;;;15.80;99.90;;;;;;5031733;28;20040;-74
2023/10/18 13:16:58;;;;;;;;;;;15.80;99.90;;;;;;5018654;28;20117;-73
2023/10/18 13:19:27;;;;;;;12.40;5.32;;;15.80;99.90;;;;;;5037286;28;19982;-74
2023/10/18 13:21:53;;;;;;;11.93;5.25;;;15.80;99.90;;;;;;5035145;28;20104;-74
2023/10/18 13:26:55;;;;;;;12.80;4.63;;;15.80;99.90;;;;;;5033853;28;20045;-74
2023/10/18 13:31:49;;;;;;;10.65;4.43;;;15.90;99.90;;;;;;5031988;28;20029;-74
2023/10/18 13:34:20;;;;;;;10.50;5.15;;;15.90;99.90;;;;;;5034293;28;20032;-74
2023/10/18 13:36:50;;;;;;;15.13;4.63;;;16.00;99.90;;;;;;5033985;28;20056;-75
2023/10/18 13:39:17;;;;;;;12.50;5.05;;;16.00;99.90;;;;;;5026495;28;20034;-74
2023/10/18 13:41:47;;;;;;;8.77;3.95;;;16.00;99.90;;;;;;5032088;28;20028;-74
2023/10/18 13:44:19;;;;;;;7.63;4.63;;;15.90;99.90;;;;;;5034710;28;20025;-75
2023/10/18 13:46:55;;;;;;;12.80;4.40;;;16.00;99.90;;;;;;5030434;28;20044;-74
2023/10/18 13:49:24;;;;;;;8.50;3.92;;;16.00;99.90;;;;;;5030379;28;20029;-74
2023/10/18 13:51:52;;;;;;;11.15;4.53;;;15.90;99.90;;;;;;5032299;28;20030;-74
2023/10/18 13:54:18;;;;;;;7.72;4.20;;;16.00;99.90;;;;;;5017910;28;20106;-75
2023/10/18 13:56:44;;;;;;;12.40;4.45;;;15.90;99.90;;;;;;5035215;28;20037;-75
2023/10/18 13:59:11;;;;;;;7.70;4.30;;;16.00;99.90;;;;;;5032540;28;20029;-75
2023/10/18 14:01:38;;;;;;;11.23;4.90;;;16.00;99.90;;;;;;5028884;28;20021;-75
2023/10/18 14:04:05;;;;;;;6.70;3.47;;;16.00;99.90;;;;;;5022424;28;20052;-74
2023/10/18 14:06:32;;;;;;;7.32;4.28;;;16.00;99.90;;;;;;5031305;28;20024;-74
2023/10/18 14:08:58;;;;;;;10.95;4.93;;;15.90;99.90;;;;;;5032322;28;20014;-74
2023/10/18 14:11:25;;;;;;;10.18;4.28;;;15.90;99.90;;;;;;5032507;28;20085;-74
2023/10/18 14:13:54;;;;;;;10.50;4.10;;;15.90;99.90;;;;;;5034426;28;20375;-73
2023/10/18 14:16:21;;;;;;;8.40;3.97;;;15.90;99.90;;;;;;5020472;28;20843;-73
2023/10/18 14:18:48;;;;;;;11.00;4.47;;;15.90;99.90;;;;;;5033122;28;20506;-75
2023/10/18 14:21:14;;;;;;;15.68;4.65;;;15.90;99.90;;;;;;5024255;28;20013;-74
2023/10/18 14:23:41;;;;;;;9.35;4.32;;;15.90;99.90;;;;;;5039368;28;20021;-74
2023/10/18 14:26:08;;;;;;;15.80;4.15;;;15.90;99.90;;;;;;5032314;28;20106;-74
2023/10/18 14:28:34;;;;;;;8.60;3.45;;;15.90;99.90;;;;;;5032519;28;20033;-73
2023/10/18 14:31:02;;;;;;;7.35;4.25;;;15.90;99.90;;;;;;5036609;28;20763;-73